Time;durP1;ratioP1;P1;durP2;ratioP2;P2;SDS_P1;SDS_P2;PMS_P1;PMS_P2;Temp;Humidity;BMP_temperature;BMP_pressure;BME280_temperature;BME280_humidity;BME280_pressure;Samples;Min_cycle;Max_cycle;Signal;HPM_P1;HPM_P2
2021/01/29 00:00:08;;;;;;;32.78;18.98;;;-1.40;99.90;;;-0.89;80.01;96197.88;171611;28;1337;-77
2021/01/29 00:00:29;;;;;;;31.41;19.04;;;-1.40;99.90;;;-0.89;80.35;96183.81;171023;29;1182;-78
2021/01/29 00:00:38;;;;;;;31.88;19.33;;;-1.40;99.90;;;-0.86;80.24;96188.78;170810;28;1538;-78
2021/01/29 00:00:45;;;;;;;33.17;18.73;;;-1.40;99.90;;;-0.94;79.92;96181.63;171136;29;942;-78
2021/01/29 00:00:50;;;;;;;34.63;18.70;;;-1.40;99.90;;;-0.90;79.77;96185.63;172219;28;1365;-78
2021/01/29 00:00:57;;;;;;;34.85;18.88;;;-1.40;99.90;;;-0.96;79.85;96178.28;172416;28;949;-78
2021/01/29 00:01:03;;;;;;;35.54;19.14;;;-1.40;99.90;;;-0.93;79.93;96185.06;172185;28;1538;-78
2021/01/29 00:01:09;;;;;;;36.30;19.17;;;-1.40;99.90;;;-0.89;80.11;96191.75;172380;28;1418;-78
2021/01/29 00:01:15;;;;;;;35.73;19.23;;;-1.40;99.90;;;-0.89;79.87;96187.31;172429;28;973;-78
2021/01/29 00:01:21;;;;;;;35.95;19.02;;;-1.40;99.90;;;-0.93;79.53;96185.06;172204;28;1208;-78
2021/01/29 00:01:27;;;;;;;35.83;18.55;;;-1.40;99.90;;;-0.96;79.48;96175.66;172411;28;1065;-77
2021/01/29 00:01:33;;;;;;;34.77;18.30;;;-1.40;99.90;;;-0.95;79.67;96187.88;171632;28;1195;-79
2021/01/29 00:01:39;;;;;;;34.08;18.13;;;-1.40;99.90;;;-0.90;79.48;96193.56;171007;29;1164;-77
2021/01/29 00:01:45;;;;;;;34.42;18.13;;;-1.40;99.90;;;-0.95;79.86;96187.88;171077;29;981;-78
2021/01/29 00:01:52;;;;;;;36.53;18.33;;;-1.40;99.90;;;-0.88;79.66;96185.47;171528;28;1198;-79
2021/01/29 00:01:59;;;;;;;35.52;18.64;;;-1.40;99.90;;;-0.95;79.79;96179.97;171081;29;914;-79
2021/01/29 00:02:05;;;;;;;34.54;18.46;;;-1.40;99.90;;;-0.87;79.96;96187.97;170816;29;1366;-78
2021/01/29 00:02:12;;;;;;;35.50;18.42;;;-1.50;99.90;;;-0.93;79.64;96182.44;172424;28;1061;-78
2021/01/29 00:02:18;;;;;;;33.00;18.10;;;-1.40;99.90;;;-0.94;79.77;96179.00;172237;28;1397;-79
2021/01/29 00:02:24;;;;;;;31.48;17.88;;;-1.40;99.90;;;-0.83;79.77;96204.38;169772;29;1093;-77
2021/01/29 00:02:30;;;;;;;31.13;17.80;;;-1.40;99.90;;;-0.88;80.07;96186.28;171636;28;1472;-78
2021/01/29 00:02:36;;;;;;;30.63;17.45;;;-1.50;99.90;;;-0.90;80.06;96190.91;171563;28;1341;-79
2021/01/29 00:02:42;;;;;;;29.88;17.23;;;-1.50;99.90;;;-0.86;80.28;96194.91;171753;28;1155;-78
2021/01/29 00:02:48;;;;;;;29.10;17.33;;;-1.50;99.90;;;-0.86;80.10;96186.16;172147;28;1382;-77
2021/01/29 00:02:56;;;;;;;28.60;17.13;;;-1.50;99.90;;;-0.80;80.13;96196.13;172463;28;788;-78
2021/01/29 00:03:07;;;;;;;30.25;17.32;;;-1.40;99.90;;;-0.80;79.76;96192.66;171662;28;1335;-78
2021/01/29 00:03:17;;;;;;;30.22;17.78;;;-1.50;99.90;;;-0.86;79.84;96186.16;172308;28;1776;-78
2021/01/29 00:03:23;;;;;;;32.86;18.10;;;-1.40;99.90;;;-0.86;79.90;96184.34;170410;29;1172;-77
2021/01/29 00:03:29;;;;;;;33.55;18.52;;;-1.40;99.90;;;-0.87;80.08;96189.78;171666;28;1170;-78
2021/01/29 00:03:35;;;;;;;34.83;18.60;;;-1.40;99.90;;;-0.94;79.98;96180.78;171580;28;1306;-78
2021/01/29 00:03:41;;;;;;;34.63;18.40;;;-1.40;99.90;;;-0.88;80.05;96182.81;171772;28;1057;-77
2021/01/29 00:03:47;;;;;;;33.70;18.50;;;-1.50;99.90;;;-0.95;80.45;96168.56;172296;28;1373;-78
2021/01/29 00:03:53;;;;;;;32.33;18.60;;;-1.50;99.90;;;-0.85;80.00;96179.91;170362;29;1278;-78
2021/01/29 00:03:59;;;;;;;30.48;18.33;;;-1.40;99.90;;;-0.88;80.18;96181.00;171623;28;1307;-77
2021/01/29 00:04:05;;;;;;;28.13;18.50;;;-1.50;99.90;;;-0.85;79.99;96177.25;172059;28;1287;-78
2021/01/29 00:04:11;;;;;;;28.83;18.63;;;-1.40;99.90;;;-0.89;79.98;96170.63;171695;28;985;-78
2021/01/29 00:04:17;;;;;;;28.85;18.50;;;-1.40;99.90;;;-0.84;79.78;96181.56;171613;28;1202;-78
2021/01/29 00:04:23;;;;;;;28.73;18.20;;;-1.40;99.90;;;-0.92;79.94;96169.09;170989;29;1579;-77
2021/01/29 00:04:29;;;;;;;29.20;18.12;;;-1.50;99.90;;;-0.83;80.15;96185.88;171081;29;914;-77
2021/01/29 00:04:35;;;;;;;29.92;17.67;;;-1.50;99.90;;;-0.91;80.33;96181.31;171461;28;1239;-78
2021/01/29 00:04:41;;;;;;;29.48;17.30;;;-1.50;99.90;;;-0.87;80.40;96176.56;172406;28;1099;-78
2021/01/29 00:04:47;;;;;;;28.90;17.25;;;-1.50;99.90;;;-0.99;80.29;96156.63;172302;28;1347;-77
2021/01/29 00:04:53;;;;;;;28.90;17.23;;;-1.50;99.90;;;-0.90;80.12;96176.88;172380;28;906;-77
2021/01/29 00:04:59;;;;;;;28.45;17.05;;;-1.50;99.90;;;-0.88;80.42;96174.91;171727;28;903;-78
2021/01/29 00:05:08;;;;;;;27.90;17.13;;;-1.50;99.90;;;-0.87;80.46;96176.56;171579;28;1385;-78
2021/01/29 00:05:14;;;;;;;28.41;16.96;;;-1.50;99.90;;;-0.97;80.58;96167.88;170938;29;1282;-79
2021/01/29 00:05:24;;;;;;;27.95;16.67;;;-1.50;99.90;;;-0.93;80.99;96172.69;172663;28;1387;-77
2021/01/29 00:05:41;;;;;;;28.44;16.71;;;-1.50;99.90;;;-0.88;81.25;96180.19;172292;28;1067;-79
2021/01/29 00:05:55;;;;;;;29.17;16.94;;;-1.40;99.90;;;-0.95;81.26;96172.03;170896;28;1276;-78
2021/01/29 00:06:04;;;;;;;31.60;17.30;;;-1.40;99.90;;;-0.94;81.38;96165.78;170997;29;1283;-78
2021/01/29 00:06:11;;;;;;;31.41;17.26;;;-1.40;99.90;;;-0.95;81.40;96171.22;171058;29;1170;-78
2021/01/29 00:06:17;;;;;;;27.73;16.47;;;-1.40;99.90;;;-0.99;81.39;96161.94;170989;29;1380;-77
2021/01/29 00:06:23;;;;;;;27.23;16.52;;;-1.40;99.90;;;-1.01;81.47;96159.41;170954;29;1366;-78
2021/01/29 00:06:29;;;;;;;26.85;16.50;;;-1.40;99.90;;;-0.97;81.19;96173.97;170407;29;1002;-78
2021/01/29 00:06:35;;;;;;;27.13;16.70;;;-1.40;99.90;;;-1.06;81.35;96161.69;171550;28;1171;-78
2021/01/29 00:06:41;;;;;;;27.70;17.00;;;-1.50;99.90;;;-1.08;81.61;96157.50;171067;29;1010;-77
2021/01/29 00:06:47;;;;;;;29.13;17.27;;;-1.40;99.90;;;-1.04;81.27;96154.44;171562;28;1398;-78
2021/01/29 00:06:53;;;;;;;29.27;17.20;;;-1.40;99.90;;;-1.09;81.27;96156.66;171054;29;1069;-78
2021/01/29 00:06:59;;;;;;;29.17;17.13;;;-1.40;99.90;;;-1.14;81.52;96145.72;171102;29;879;-77
2021/01/29 00:07:07;;;;;;;29.45;16.77;;;-1.50;99.90;;;-1.07;81.48;96156.53;170290;29;1188;-79
2021/01/29 00:07:13;;;;;;;30.20;16.90;;;-1.40;99.90;;;-1.12;81.69;96150.88;171051;29;965;-79
2021/01/29 00:07:19;;;;;;;30.20;17.47;;;-1.40;99.90;;;-1.06;81.39;96153.75;170491;29;1446;-78
2021/01/29 00:07:25;;;;;;;30.15;17.40;;;-1.50;99.90;;;-1.08;81.46;96153.06;171109;29;1096;-79
2021/01/29 00:07:31;;;;;;;32.13;17.43;;;-1.50;99.90;;;-1.01;81.46;96163.88;171009;29;1445;-78
2021/01/29 00:07:39;;;;;;;32.72;17.40;;;-1.40;99.90;;;-1.00;81.54;96163.72;171606;28;1018;-77
2021/01/29 00:07:45;;;;;;;32.80;16.93;;;-1.40;99.90;;;-0.98;81.26;96169.69;171090;29;1053;-78
2021/01/29 00:07:51;;;;;;;32.72;16.77;;;-1.40;99.90;;;-1.03;81.43;96158.72;170965;29;1201;-79
2021/01/29 00:07:57;;;;;;;31.90;16.45;;;-1.40;99.90;;;-0.90;81.38;96182.16;171039;29;1112;-77
2021/01/29 00:08:03;;;;;;;29.88;16.08;;;-1.50;99.90;;;-1.01;81.39;96159.41;170214;29;1345;-78
2021/01/29 00:08:10;;;;;;;28.73;15.82;;;-1.40;99.90;;;-0.91;81.49;96178.69;169777;29;855;-80
2021/01/29 00:08:17;;;;;;;29.10;16.03;;;-1.40;99.90;;;-0.90;81.16;96176.88;170367;29;1365;-78
2021/01/29 00:08:25;;;;;;;29.90;15.86;;;-1.50;99.90;;;-0.89;80.89;96175.91;171077;29;1041;-78
2021/01/29 00:08:35;;;;;;;29.80;16.13;;;-1.50;99.90;;;-0.97;80.71;96163.41;170369;29;1042;-78
2021/01/29 00:08:41;;;;;;;31.81;16.75;;;-1.50;99.90;;;-0.94;80.93;96171.06;169095;29;1184;-79
2021/01/29 00:08:47;;;;;;;30.75;16.67;;;-1.50;99.90;;;-0.95;80.49;96166.75;170416;29;926;-79
2021/01/29 00:08:53;;;;;;;29.77;16.63;;;-1.50;99.90;;;-1.00;80.30;96158.44;171725;28;1128;-77
2021/01/29 00:08:59;;;;;;;29.42;16.80;;;-1.50;99.90;;;-0.98;80.32;96167.03;171048;29;1033;-79
2021/01/29 00:09:05;;;;;;;27.50;16.55;;;-1.50;99.90;;;-0.99;80.20;96164.56;170965;29;1342;-77
2021/01/29 00:09:11;;;;;;;26.40;16.13;;;-1.50;99.90;;;-0.97;80.57;96178.44;169648;29;1524;-79
2021/01/29 00:09:19;;;;;;;25.50;16.10;;;-1.50;99.90;;;-0.99;80.26;96175.97;171021;29;1002;-78
2021/01/29 00:09:24;;;;;;;25.00;16.40;;;-1.50;99.90;;;-0.97;80.63;96173.97;172429;28;997;-79
2021/01/29 00:09:30;;;;;;;25.77;16.70;;;-1.50;99.90;;;-0.99;80.70;96178.59;172324;28;1152;-79
2021/01/29 00:09:36;;;;;;;27.08;16.83;;;-1.50;99.90;;;-1.03;80.64;96168.47;171455;28;1329;-79
2021/01/29 00:09:42;;;;;;;27.60;17.23;;;-1.50;99.90;;;-1.04;81.02;96167.66;171663;28;1179;-78
2021/01/29 00:09:48;;;;;;;28.35;17.30;;;-1.50;99.90;;;-1.10;80.51;96167.41;172298;28;1175;-78
2021/01/29 00:09:54;;;;;;;29.13;17.23;;;-1.50;99.90;;;-1.09;80.56;96172.53;171717;28;1025;-78
2021/01/29 00:10:02;;;;;;;28.02;17.17;;;-1.50;99.90;;;-1.05;80.79;96179.19;172341;28;1320;-78
2021/01/29 00:10:10;;;;;;;30.07;17.57;;;-1.50;99.90;;;-1.02;80.82;96180.69;170981;29;1218;-78
2021/01/29 00:10:17;;;;;;;29.60;17.53;;;-1.50;99.90;;;-1.11;80.60;96160.47;172958;28;1414;-77
2021/01/29 00:10:23;;;;;;;29.33;17.57;;;-1.50;99.90;;;-1.03;81.09;96173.75;171119;29;1021;-78
2021/01/29 00:10:29;;;;;;;30.07;17.37;;;-1.50;99.90;;;-1.12;80.32;96156.97;170223;29;1459;-78
2021/01/29 00:10:36;;;;;;;29.83;16.95;;;-1.50;99.90;;;-0.98;80.74;96174.97;171116;28;1195;-78
2021/01/29 00:10:42;;;;;;;27.98;16.67;;;-1.50;99.90;;;-1.03;80.89;96168.47;171643;28;1270;-77
2021/01/29 00:10:50;;;;;;;27.67;16.83;;;-1.50;99.90;;;-0.99;80.68;96173.31;172178;28;1418;-78
2021/01/29 00:10:56;;;;;;;27.67;16.77;;;-1.50;99.90;;;-0.99;80.51;96173.31;171013;29;1303;-77
2021/01/29 00:11:04;;;;;;;28.00;16.57;;;-1.50;99.90;;;-1.12;80.62;96156.97;170984;29;1191;-78
2021/01/29 00:11:10;;;;;;;28.43;16.80;;;-1.50;99.90;;;-1.00;81.09;96178.75;171786;28;933;-78
2021/01/29 00:11:16;;;;;;;28.40;16.58;;;-1.50;99.90;;;-0.97;80.63;96181.06;171002;28;1331;-78
2021/01/29 00:11:22;;;;;;;29.20;16.60;;;-1.50;99.90;;;-1.01;80.88;96169.97;172181;28;1201;-78
2021/01/29 00:11:28;;;;;;;29.20;16.55;;;-1.50;99.90;;;-1.01;81.17;96169.16;172058;28;981;-79
2021/01/29 00:11:34;;;;;;;28.23;16.35;;;-1.50;99.90;;;-0.98;80.53;96174.13;171611;28;1229;-79
2021/01/29 00:11:39;;;;;;;27.85;16.10;;;-1.50;99.90;;;-1.06;80.75;96159.03;171759;28;1044;-78
2021/01/29 00:11:47;;;;;;;27.52;15.82;;;-1.50;99.90;;;-1.07;80.72;96156.53;172416;28;1028;-79
2021/01/29 00:11:53;;;;;;;26.67;15.73;;;-1.50;99.90;;;-1.01;81.10;96172.63;171123;29;946;-77
2021/01/29 00:11:59;;;;;;;26.47;15.63;;;-1.50;99.90;;;-1.01;81.25;96167.34;171676;28;1384;-78
2021/01/29 00:12:06;;;;;;;26.08;15.77;;;-1.40;99.90;;;-0.93;81.10;96177.16;171619;28;1350;-78
2021/01/29 00:12:12;;;;;;;26.20;16.12;;;-1.50;99.90;;;-1.00;81.00;96168.19;172368;28;1258;-79
2021/01/29 00:12:18;;;;;;;28.30;16.75;;;-1.40;99.90;;;-1.04;80.97;96154.44;172214;28;1332;-78
2021/01/29 00:12:24;;;;;;;29.03;17.00;;;-1.50;99.90;;;-0.94;80.90;96173.72;172416;28;1016;-79
2021/01/29 00:12:30;;;;;;;28.57;17.10;;;-1.40;99.90;;;-0.91;81.18;96177.84;173120;28;839;-78
2021/01/29 00:12:37;;;;;;;28.17;17.00;;;-1.40;99.90;;;-1.07;81.05;96152.09;171549;28;1441;-78
2021/01/29 00:12:43;;;;;;;27.63;16.73;;;-1.40;99.90;;;-0.90;80.76;96183.00;171730;28;1069;-79
2021/01/29 00:12:50;;;;;;;29.23;16.92;;;-1.40;99.90;;;-0.97;81.03;96170.50;171551;28;1354;-77
2021/01/29 00:12:57;;;;;;;27.98;16.75;;;-1.40;99.90;;;-0.97;81.04;96165.22;171639;28;1399;-79
2021/01/29 00:13:06;;;;;;;28.48;16.72;;;-1.40;99.90;;;-0.96;80.89;96175.66;170874;29;1357;-78
2021/01/29 00:13:14;;;;;;;29.53;16.63;;;-1.40;99.90;;;-1.09;81.07;96159.31;172293;28;1482;-77
2021/01/29 00:13:23;;;;;;;27.04;16.29;;;-1.40;99.90;;;-0.94;80.64;96175.50;170943;29;1199;-78
2021/01/29 00:13:30;;;;;;;27.18;16.12;;;-1.40;99.90;;;-0.90;80.84;96176.88;171548;28;1300;-78
2021/01/29 00:13:36;;;;;;;29.14;16.02;;;-1.40;99.90;;;-0.99;80.97;96161.94;172078;28;1186;-78
2021/01/29 00:13:42;;;;;;;28.98;16.20;;;-1.40;99.90;;;-0.92;80.78;96174.38;172403;28;1084;-79
2021/01/29 00:13:48;;;;;;;28.67;16.02;;;-1.40;99.90;;;-0.95;80.34;96166.75;171518;28;1546;-77
2021/01/29 00:13:54;;;;;;;28.00;15.80;;;-1.40;99.90;;;-0.93;80.55;96169.22;170394;29;1038;-78
2021/01/29 00:14:00;;;;;;;28.53;16.27;;;-1.40;99.90;;;-0.93;80.60;96167.41;171773;28;994;-78
2021/01/29 00:14:06;;;;;;;27.63;16.48;;;-1.40;99.90;;;-0.94;80.53;96173.72;171297;28;1252;-78
2021/01/29 00:14:12;;;;;;;27.73;16.33;;;-1.50;99.90;;;-0.94;80.52;96175.50;171689;28;1334;-78
2021/01/29 00:14:18;;;;;;;28.20;16.60;;;-1.40;99.90;;;-0.92;80.62;96173.53;172342;28;1372;-77
2021/01/29 00:14:24;;;;;;;29.73;16.88;;;-1.50;99.90;;;-0.95;80.60;96169.41;171674;28;1229;-78
2021/01/29 00:14:29;;;;;;;29.90;16.85;;;-1.40;99.90;;;-0.91;80.32;96181.31;173098;28;894;-79
2021/01/29 00:14:36;;;;;;;29.45;16.90;;;-1.50;99.90;;;-0.95;80.28;96168.56;171650;28;1206;-77
2021/01/29 00:14:41;;;;;;;30.42;17.02;;;-1.40;99.90;;;-1.01;80.56;96161.22;171053;29;1064;-79
2021/01/29 00:14:47;;;;;;;31.27;17.05;;;-1.50;99.90;;;-0.97;80.29;96171.34;172340;28;1018;-79
2021/01/29 00:14:53;;;;;;;29.60;16.65;;;-1.40;99.90;;;-1.07;80.24;96157.38;171756;28;882;-78
2021/01/29 00:14:59;;;;;;;29.50;16.20;;;-1.50;99.90;;;-0.93;80.34;96174.50;171802;28;1005;-79
2021/01/29 00:15:17;;;;;;;29.45;15.88;;;-1.50;99.90;;;-0.94;80.29;96180.78;172004;28;1198;-78
2021/01/29 00:15:23;;;;;;;27.83;15.54;;;-1.40;99.90;;;-0.97;80.08;96170.50;170302;29;1447;-79
2021/01/29 00:15:30;;;;;;;27.43;15.17;;;-1.50;99.90;;;-0.99;80.23;96168.03;170947;29;918;-78
2021/01/29 00:15:36;;;;;;;28.23;15.10;;;-1.50;99.90;;;-0.96;80.30;96178.28;170911;29;1168;-78
2021/01/29 00:15:43;;;;;;;28.23;15.18;;;-1.50;99.90;;;-0.98;80.20;96169.69;169781;29;1061;-78
2021/01/29 00:15:49;;;;;;;28.15;15.05;;;-1.50;99.90;;;-1.01;80.06;96169.16;170312;29;1332;-78
2021/01/29 00:15:56;;;;;;;28.10;15.20;;;-1.50;99.90;;;-0.99;80.17;96170.69;171084;29;852;-78
2021/01/29 00:16:02;;;;;;;27.80;15.35;;;-1.50;99.90;;;-0.96;80.10;96178.28;171635;28;1428;-78
2021/01/29 00:16:08;;;;;;;27.23;15.67;;;-1.50;99.90;;;-0.99;80.23;96175.97;172456;28;1029;-78
2021/01/29 00:16:14;;;;;;;27.17;15.88;;;-1.50;99.90;;;-0.99;80.27;96167.22;172447;28;953;-79
2021/01/29 00:16:20;;;;;;;25.52;16.08;;;-1.50;99.90;;;-0.97;80.22;96173.16;171469;28;1266;-77
2021/01/29 00:16:26;;;;;;;25.35;16.13;;;-1.50;99.90;;;-0.93;80.33;96180.63;171565;28;1555;-79
2021/01/29 00:16:31;;;;;;;25.70;16.23;;;-1.50;99.90;;;-0.90;80.42;96180.34;171784;28;958;-78
2021/01/29 00:16:37;;;;;;;27.42;16.13;;;-1.50;99.90;;;-0.95;80.30;96173.84;172163;28;1739;-77
2021/01/29 00:16:43;;;;;;;27.70;15.73;;;-1.50;99.90;;;-0.94;80.20;96181.63;172379;28;1950;-79
2021/01/29 00:16:50;;;;;;;27.98;15.60;;;-1.50;99.90;;;-0.96;80.04;96175.66;171720;28;1367;-78
2021/01/29 00:16:56;;;;;;;31.23;15.70;;;-1.50;99.90;;;-0.93;79.89;96182.44;172467;28;954;-79
2021/01/29 00:17:03;;;;;;;31.33;15.57;;;-1.50;99.90;;;-0.95;80.13;96179.13;171709;28;1143;-78
2021/01/29 00:17:09;;;;;;;29.43;15.77;;;-1.50;99.90;;;-0.89;79.99;96187.31;171711;28;1037;-79
2021/01/29 00:17:15;;;;;;;28.80;15.70;;;-1.50;99.90;;;-0.96;80.21;96174.81;172350;28;1300;-78
2021/01/29 00:17:21;;;;;;;29.38;16.10;;;-1.50;99.90;;;-0.90;80.27;96187.44;172208;28;1640;-78
2021/01/29 00:17:27;;;;;;;28.27;16.27;;;-1.50;99.90;;;-0.96;80.01;96183.56;171635;28;1177;-78
2021/01/29 00:17:33;;;;;;;27.83;16.30;;;-1.50;99.90;;;-1.01;80.24;96169.97;171658;28;1247;-77
2021/01/29 00:17:40;;;;;;;29.33;16.45;;;-1.50;99.90;;;-0.97;80.34;96179.25;171022;29;1240;-77
2021/01/29 00:17:46;;;;;;;30.80;16.60;;;-1.50;99.90;;;-1.02;80.61;96170.13;171030;29;1437;-77
2021/01/29 00:17:52;;;;;;;29.33;16.33;;;-1.50;99.90;;;-0.99;80.73;96173.31;171563;28;1256;-78
2021/01/29 00:17:59;;;;;;;29.48;16.42;;;-1.50;99.90;;;-0.93;80.27;96179.78;171734;28;887;-78
2021/01/29 00:18:06;;;;;;;28.53;16.08;;;-1.50;99.90;;;-0.92;80.32;96184.09;170793;28;1340;-78
2021/01/29 00:18:12;;;;;;;27.43;15.67;;;-1.50;99.90;;;-0.98;80.50;96171.47;172341;28;1357;-77
2021/01/29 00:18:19;;;;;;;25.77;15.33;;;-1.50;99.90;;;-0.89;80.27;96184.66;170913;29;1450;-79
2021/01/29 00:18:25;;;;;;;26.10;15.10;;;-1.50;99.90;;;-0.94;80.37;96170.22;171745;28;947;-79
2021/01/29 00:18:31;;;;;;;25.73;14.90;;;-1.50;99.90;;;-0.90;80.39;96183.00;171660;28;1516;-79
2021/01/29 00:18:37;;;;;;;26.15;14.70;;;-1.50;99.90;;;-0.93;80.14;96171.88;170931;28;1175;-77
2021/01/29 00:18:43;;;;;;;25.63;14.48;;;-1.50;99.90;;;-0.93;80.47;96174.50;171774;28;953;-77
2021/01/29 00:18:49;;;;;;;25.77;14.45;;;-1.50;99.90;;;-0.94;80.05;96171.06;170946;29;1200;-78
2021/01/29 00:18:55;;;;;;;25.70;14.30;;;-1.50;99.90;;;-0.88;79.79;96182.81;171032;29;1164;-78
2021/01/29 00:19:01;;;;;;;26.58;14.18;;;-1.50;99.90;;;-0.88;80.09;96181.00;171105;29;1046;-79
2021/01/29 00:19:08;;;;;;;26.97;14.30;;;-1.50;99.90;;;-0.88;79.99;96180.19;170876;28;1402;-79
2021/01/29 00:19:14;;;;;;;27.46;14.56;;;-1.50;99.90;;;-0.91;79.83;96180.50;171618;28;1457;-78
2021/01/29 00:19:19;;;;;;;26.35;14.60;;;-1.50;99.90;;;-0.92;80.20;96179.66;170534;29;1343;-78
2021/01/29 00:19:25;;;;;;;25.83;14.75;;;-1.50;99.90;;;-0.91;79.74;96180.50;171043;28;955;-78
2021/01/29 00:19:31;;;;;;;24.88;14.73;;;-1.50;99.90;;;-0.88;80.12;96180.19;172350;28;1358;-78
2021/01/29 00:19:37;;;;;;;24.15;14.43;;;-1.50;99.90;;;-0.92;80.02;96177.00;172167;28;1346;-78
2021/01/29 00:19:43;;;;;;;23.73;14.47;;;-1.50;99.90;;;-0.88;79.67;96181.00;171768;28;1100;-78
2021/01/29 00:19:49;;;;;;;24.35;14.45;;;-1.50;99.90;;;-1.09;79.51;96150.59;172276;28;1302;-79
2021/01/29 00:19:55;;;;;;;23.48;14.18;;;-1.50;99.90;;;-0.87;79.82;96180.03;171673;28;1234;-79
2021/01/29 00:20:04;;;;;;;22.70;14.03;;;-1.50;99.90;;;-0.96;79.89;96165.09;172336;28;1229;-79
2021/01/29 00:20:20;;;;;;;22.70;14.32;;;-1.50;99.90;;;-0.96;80.18;96172.19;172192;28;1313;-79
2021/01/29 00:20:28;;;;;;;23.39;14.06;;;-1.50;99.90;;;-0.99;80.28;96172.50;170973;29;1466;-78
2021/01/29 00:20:35;;;;;;;23.87;13.97;;;-1.50;99.90;;;-0.90;80.26;96177.72;171106;28;1310;-79
2021/01/29 00:20:41;;;;;;;23.10;13.50;;;-1.50;99.90;;;-0.91;80.54;96170.75;171638;28;1493;-79
2021/01/29 00:20:48;;;;;;;21.87;13.33;;;-1.50;99.90;;;-0.87;80.57;96182.69;171761;28;1041;-78
2021/01/29 00:20:54;;;;;;;23.60;13.30;;;-1.50;99.90;;;-0.95;80.47;96166.75;171700;28;1155;-78
2021/01/29 00:20:59;;;;;;;23.42;13.35;;;-1.50;99.90;;;-1.00;80.83;96155.81;171665;28;1205;-78
2021/01/29 00:21:05;;;;;;;23.48;13.48;;;-1.50;99.90;;;-0.90;80.99;96167.16;170967;28;1193;-78
2021/01/29 00:21:11;;;;;;;23.20;13.63;;;-1.50;99.90;;;-0.91;80.92;96170.75;172421;28;1045;-79
2021/01/29 00:21:17;;;;;;;23.00;13.73;;;-1.50;99.90;;;-0.93;80.77;96163.94;170931;29;1341;-77
2021/01/29 00:21:23;;;;;;;22.08;13.75;;;-1.50;99.90;;;-0.87;81.10;96172.13;170845;28;1182;-78
2021/01/29 00:21:29;;;;;;;22.33;13.90;;;-1.50;99.90;;;-0.79;80.95;96191.69;171585;28;847;-79
2021/01/29 00:21:35;;;;;;;22.80;14.10;;;-1.50;99.90;;;-0.86;81.24;96168.50;170924;28;1336;-78
2021/01/29 00:21:41;;;;;;;22.95;14.25;;;-1.40;99.90;;;-0.86;81.25;96163.22;170963;29;1223;-78
2021/01/29 00:21:47;;;;;;;22.98;14.18;;;-1.40;99.90;;;-0.82;80.92;96176.13;171001;29;1288;-79
2021/01/29 00:21:53;;;;;;;23.20;14.32;;;-1.40;99.90;;;-0.80;80.78;96176.81;171759;28;938;-78
2021/01/29 00:21:59;;;;;;;22.03;14.20;;;-1.40;99.90;;;-0.80;81.23;96171.53;170427;29;1049;-79
2021/01/29 00:22:05;;;;;;;21.40;13.93;;;-1.40;99.90;;;-0.75;81.30;96180.66;170255;29;1327;-78
2021/01/29 00:22:11;;;;;;;22.38;13.70;;;-1.40;99.90;;;-0.79;81.23;96170.56;171073;29;950;-79
2021/01/29 00:22:17;;;;;;;21.88;13.52;;;-1.40;99.90;;;-0.80;81.02;96171.53;171734;28;1113;-78
2021/01/29 00:22:23;;;;;;;20.77;13.38;;;-1.40;99.90;;;-0.74;80.75;96177.06;170939;29;1167;-78
2021/01/29 00:22:29;;;;;;;21.13;13.50;;;-1.40;99.90;;;-0.83;80.92;96172.66;171520;28;1140;-78
2021/01/29 00:22:35;;;;;;;21.10;13.45;;;-1.40;99.90;;;-0.80;81.38;96160.97;170955;28;1278;-78
2021/01/29 00:22:41;;;;;;;20.05;13.57;;;-1.40;99.90;;;-0.76;81.16;96183.44;170440;29;901;-79
2021/01/29 00:22:47;;;;;;;20.70;13.80;;;-1.40;99.90;;;-0.83;81.26;96169.19;172343;28;1370;-77
2021/01/29 00:22:53;;;;;;;21.83;13.97;;;-1.40;99.90;;;-0.82;80.90;96170.81;172240;28;1351;-78
2021/01/29 00:22:59;;;;;;;21.67;13.75;;;-1.40;99.90;;;-0.88;81.14;96159.88;172322;28;1513;-77
2021/01/29 00:23:06;;;;;;;23.23;13.60;;;-1.40;99.90;;;-0.81;81.38;96164.56;171542;28;1517;-79
2021/01/29 00:23:12;;;;;;;22.93;13.43;;;-1.40;99.90;;;-0.83;81.14;96169.19;171742;28;1064;-79
2021/01/29 00:23:19;;;;;;;22.23;13.27;;;-1.40;99.90;;;-0.74;81.21;96179.69;172300;28;1339;-79
2021/01/29 00:23:25;;;;;;;22.57;13.07;;;-1.40;99.90;;;-0.80;81.26;96172.34;171670;28;1478;-77
2021/01/29 00:23:31;;;;;;;22.15;13.10;;;-1.40;99.90;;;-0.84;81.00;96156.97;171665;28;1290;-79
2021/01/29 00:23:37;;;;;;;20.95;12.95;;;-1.40;99.90;;;-0.79;80.70;96167.91;171607;28;1369;-79
2021/01/29 00:23:43;;;;;;;21.10;12.93;;;-1.40;99.90;;;-0.80;80.72;96179.44;170967;29;1308;-79
2021/01/29 00:23:49;;;;;;;23.42;13.20;;;-1.40;99.90;;;-0.87;80.88;96172.13;170391;28;1355;-79
2021/01/29 00:23:55;;;;;;;23.35;13.38;;;-1.40;99.90;;;-0.84;80.42;96178.94;171010;29;1265;-79
2021/01/29 00:24:01;;;;;;;23.30;13.52;;;-1.40;99.90;;;-0.80;80.69;96184.72;170984;29;1498;-79
2021/01/29 00:24:08;;;;;;;24.10;13.75;;;-1.40;99.90;;;-0.92;80.48;96165.63;170883;28;1191;-78
2021/01/29 00:24:14;;;;;;;24.64;13.92;;;-1.40;99.90;;;-0.94;80.32;96178.16;170977;29;1413;-78
2021/01/29 00:24:19;;;;;;;23.70;14.20;;;-1.40;99.90;;;-0.96;80.40;96172.19;170369;29;1286;-77
2021/01/29 00:24:25;;;;;;;24.33;14.32;;;-1.40;99.90;;;-0.99;80.47;96167.22;172356;28;1251;-79
2021/01/29 00:24:31;;;;;;;24.25;14.43;;;-1.40;99.90;;;-0.98;80.06;96172.31;171560;28;1327;-77
2021/01/29 00:24:38;;;;;;;23.90;14.52;;;-1.40;99.90;;;-0.93;80.13;96180.63;170807;28;1373;-79
2021/01/29 00:24:44;;;;;;;24.13;14.77;;;-1.50;99.90;;;-0.92;80.14;96184.09;171038;29;1268;-78
2021/01/29 00:24:50;;;;;;;24.30;14.77;;;-1.40;99.90;;;-0.89;79.98;96184.66;170275;29;1357;-78
2021/01/29 00:24:56;;;;;;;24.03;14.83;;;-1.40;99.90;;;-0.89;80.24;96192.59;170364;29;1148;-78
2021/01/29 00:25:10;;;;;;;26.98;14.90;;;-1.40;99.90;;;-0.90;80.09;96188.28;171055;29;1029;-78
2021/01/29 00:25:25;;;;;;;28.75;15.02;;;-1.40;99.90;;;-0.88;80.57;96191.56;171685;28;1289;-79
2021/01/29 00:25:44;;;;;;;27.60;14.70;;;-1.40;99.90;;;-0.88;80.33;96188.94;172363;28;1258;-78
2021/01/29 00:25:54;;;;;;;24.85;14.39;;;-1.40;99.90;;;-0.89;80.07;96182.00;172253;28;1828;-79
2021/01/29 00:25:59;;;;;;;23.97;14.33;;;-1.40;99.90;;;-0.91;80.35;96181.31;171668;28;1300;-79
2021/01/29 00:26:05;;;;;;;23.17;14.27;;;-1.40;99.90;;;-0.96;80.55;96167.72;172302;28;1189;-78
2021/01/29 00:26:12;;;;;;;22.70;14.10;;;-1.50;99.90;;;-0.84;80.67;96188.66;171736;28;1021;-78
2021/01/29 00:26:18;;;;;;;23.43;13.83;;;-1.50;99.90;;;-0.83;80.67;96187.69;171640;28;1271;-79
2021/01/29 00:26:24;;;;;;;23.73;14.07;;;-1.50;99.90;;;-0.80;80.96;96190.84;171643;28;1237;-78
2021/01/29 00:26:30;;;;;;;23.27;13.80;;;-1.40;99.90;;;-0.80;80.66;96187.38;171650;28;1176;-78
2021/01/29 00:26:36;;;;;;;22.88;13.68;;;-1.40;99.90;;;-0.86;80.82;96179.06;172199;28;1182;-78
2021/01/29 00:26:42;;;;;;;23.17;13.47;;;-1.40;99.90;;;-0.82;80.59;96178.75;171788;28;933;-78
2021/01/29 00:26:48;;;;;;;21.58;13.15;;;-1.40;99.90;;;-0.83;80.39;96179.75;172424;28;957;-78
2021/01/29 00:26:53;;;;;;;21.90;13.05;;;-1.40;99.90;;;-0.91;80.39;96183.97;170975;29;1179;-79
2021/01/29 00:27:00;;;;;;;21.58;12.82;;;-1.40;99.90;;;-0.83;80.43;96182.41;171678;28;1048;-77
2021/01/29 00:27:06;;;;;;;23.13;13.03;;;-1.40;99.90;;;-0.79;79.78;96194.31;170312;29;1313;-79
2021/01/29 00:27:12;;;;;;;24.13;13.30;;;-1.40;99.90;;;-0.86;79.88;96183.50;170996;29;1483;-78
2021/01/29 00:27:18;;;;;;;24.73;13.60;;;-1.50;99.90;;;-0.82;80.10;96202.53;170335;29;1360;-79
2021/01/29 00:27:24;;;;;;;24.13;13.60;;;-1.40;99.90;;;-0.84;80.12;96202.69;170335;29;1112;-77
2021/01/29 00:27:30;;;;;;;25.05;14.02;;;-1.50;99.90;;;-1.02;80.07;96176.25;171678;28;969;-79
2021/01/29 00:27:37;;;;;;;24.15;14.18;;;-1.40;99.90;;;-0.94;80.26;96186.91;171898;28;1371;-79
2021/01/29 00:27:43;;;;;;;23.40;14.26;;;-1.50;99.90;;;-0.92;80.16;96198.13;172329;28;1052;-78
2021/01/29 00:27:50;;;;;;;23.47;14.43;;;-1.50;99.90;;;-0.89;80.32;96197.88;172975;28;1273;-78
2021/01/29 00:27:56;;;;;;;24.60;14.66;;;-1.50;99.90;;;-0.96;80.31;96199.44;171616;28;1568;-77
2021/01/29 00:28:04;;;;;;;24.70;14.95;;;-1.50;99.90;;;-0.94;79.96;96199.28;173032;28;1236;-79
2021/01/29 00:28:10;;;;;;;25.42;14.83;;;-1.50;99.90;;;-0.93;80.44;96206.22;170994;29;1321;-78
2021/01/29 00:28:17;;;;;;;26.67;15.00;;;-1.50;99.90;;;-0.90;80.07;96205.94;170354;29;1443;-77